Time;durP1;ratioP1;P1;durP2;ratioP2;P2;SDS_P1;SDS_P2;PMS_P1;PMS_P2;Temp;Humidity;BMP_temperature;BMP_pressure;BME280_temperature;BME280_humidity;BME280_pressure;Samples;Min_cycle;Max_cycle;Signal;HPM_P1;HPM_P2
2022/03/04 00:02:15;;;;;;;;;;;;;;;18.00;37.71;100678.59;5060270;28;946;-60
2022/03/04 00:04:40;;;;;;;;;;;;;;;18.23;37.12;100673.47;5057814;28;756;-60
2022/03/04 00:07:06;;;;;;;;;;;;;;;18.39;37.29;100679.69;5062870;28;1074;-60
2022/03/04 00:09:31;;;;;;;;;;;;;;;18.42;36.84;100666.16;5057998;28;1909;-59
2022/03/04 00:11:57;;;;;;;;;;;;;;;18.58;36.59;100671.50;5057930;28;758;-60
2022/03/04 00:14:22;;;;;;;;;;;;;;;18.61;36.77;100673.72;5058199;28;1139;-60
2022/03/04 00:16:47;;;;;;;;;;;;;;;18.61;36.47;100668.19;5077147;28;879;-61
2022/03/04 00:19:13;;;;;;;;;;;;;;;18.40;37.01;100671.13;5077547;28;847;-60
2022/03/04 00:21:43;;;;;;;;;;;;;;;17.87;38.06;100666.25;5077444;28;830;-61
2022/03/04 00:24:09;;;;;;;;;;;;;;;17.60;38.53;100666.72;5077634;28;832;-59
2022/03/04 00:26:34;;;;;;;;;;;;;;;17.35;39.03;100675.88;5077549;28;862;-60
2022/03/04 00:29:00;;;;;;;;;;;;;;;17.19;39.75;100669.63;5077099;28;1898;-61
2022/03/04 00:31:25;;;;;;;;;;;;;;;17.36;39.20;100669.28;5075788;28;1442;-58
2022/03/04 00:33:51;;;;;;;;;;;;;;;17.81;38.53;100670.16;5077656;28;840;-62
2022/03/04 00:36:16;;;;;;;;;;;;;;;18.02;37.61;100668.13;5076961;28;884;-59
2022/03/04 00:38:42;;;;;;;;;;;;;;;18.18;37.43;100659.75;5077807;28;800;-60
2022/03/04 00:41:07;;;;;;;;;;;;;;;18.24;37.22;100659.44;5077762;28;718;-59
2022/03/04 00:43:33;;;;;;;;;;;;;;;18.33;37.06;100667.06;5076585;28;823;-60
2022/03/04 00:45:59;;;;;;;;;;;;;;;18.44;37.07;100668.63;5077335;28;882;-59
2022/03/04 00:48:24;;;;;;;;;;;;;;;18.41;36.89;100667.28;5076746;28;1913;-59
2022/03/04 00:50:50;;;;;;;;;;;;;;;18.46;36.79;100663.66;5077149;28;829;-59
2022/03/04 00:53:15;;;;;;;;;;;;;;;18.54;36.79;100668.53;5077820;28;770;-58
2022/03/04 00:55:40;;;;;;;;;;;;;;;18.56;36.69;100666.28;5076559;28;901;-59
2022/03/04 00:58:06;;;;;;;;;;;;;;;18.56;36.95;100666.28;5076770;28;856;-59
2022/03/04 01:00:32;;;;;;;;;;;;;;;18.69;36.59;100669.50;5076894;28;831;-59
2022/03/04 01:02:57;;;;;;;;;;;;;;;18.56;36.61;100662.72;5076971;28;760;-60
2022/03/04 01:05:22;;;;;;;;;;;;;;;18.34;37.25;100665.94;5077105;28;956;-59
2022/03/04 01:07:48;;;;;;;;;;;;;;;18.06;37.56;100665.59;5076924;28;727;-60
2022/03/04 01:10:13;;;;;;;;;;;;;;;17.64;38.62;100665.00;5075899;28;1914;-60
2022/03/04 01:12:39;;;;;;;;;;;;;;;17.44;39.16;100674.19;5077051;28;829;-59
2022/03/04 01:15:05;;;;;;;;;;;;;;;17.24;39.64;100670.44;5076456;28;1202;-61
2022/03/04 01:17:30;;;;;;;;;;;;;;;17.51;39.06;100668.41;5076059;28;979;-60
2022/03/04 01:19:55;;;;;;;;;;;;;;;17.55;39.01;100656.53;5076818;28;877;-59
2022/03/04 01:22:21;;;;;;;;;;;;;;;17.57;38.57;100656.25;5076574;28;781;-61
2022/03/04 01:24:46;;;;;;;;;;;;;;;18.00;37.99;100662.06;5076555;28;841;-59
2022/03/04 01:27:12;;;;;;;;;;;;;;;18.23;37.40;100665.19;5076410;28;758;-60
2022/03/04 01:29:37;;;;;;;;;;;;;;;18.36;37.34;100663.75;5076468;28;1976;-58
2022/03/04 01:32:03;;;;;;;;;;;;;;;18.38;37.02;100676.09;5076499;28;970;-59
2022/03/04 01:34:28;;;;;;;;;;;;;;;18.42;36.94;100670.84;5075947;28;931;-60
2022/03/04 01:36:53;;;;;;;;;;;;;;;18.54;36.70;100670.47;5076121;28;845;-59
2022/03/04 01:39:19;;;;;;;;;;;;;;;18.62;36.45;100676.16;5076466;28;985;-60
2022/03/04 01:41:44;;;;;;;;;;;;;;;18.70;36.54;100676.66;5075880;28;820;-59
2022/03/04 01:44:10;;;;;;;;;;;;;;;18.61;36.65;100674.53;5076258;28;837;-59
2022/03/04 01:46:35;;;;;;;;;;;;;;;18.17;37.09;100674.63;5075700;28;887;-59
2022/03/04 01:49:01;;;;;;;;;;;;;;;17.74;37.89;100675.13;5075431;28;1905;-59
2022/03/04 01:51:26;;;;;;;;;;;;;;;17.22;38.76;100671.81;5076165;28;778;-59
2022/03/04 01:53:52;;;;;;;;;;;;;;;17.11;39.49;100671.03;5076352;28;748;-59
2022/03/04 01:56:18;;;;;;;;;;;;;;;17.73;38.44;100670.75;5075726;28;982;-58
2022/03/04 01:58:43;;;;;;;;;;;;;;;18.37;37.24;100657.94;5075026;28;833;-58
2022/03/04 02:01:09;;;;;;;;;;;;;;;17.75;38.03;100666.63;5075273;28;785;-59
2022/03/04 02:03:34;;;;;;;;;;;;;;;17.38;38.76;100664.34;5076175;28;810;-60
2022/03/04 02:06:00;;;;;;;;;;;;;;;17.06;39.32;100663.63;5075828;28;787;-60
2022/03/04 02:08:25;;;;;;;;;;;;;;;16.82;39.92;100668.06;5075890;28;1902;-60
2022/03/04 02:10:51;;;;;;;;;;;;;;;16.77;40.95;100666.13;5075618;28;895;-60
2022/03/04 02:13:16;;;;;;;;;;;;;;;17.40;38.87;100662.13;5075606;28;840;-60
2022/03/04 02:15:46;;;;;;;;;;;;;;;17.17;39.36;100664.41;5075630;28;1108;-59
2022/03/04 02:18:12;;;;;;;;;;;;;;;16.87;40.05;100665.28;5075454;28;794;-59
2022/03/04 02:20:38;;;;;;;;;;;;;;;16.66;40.49;100659.84;5075738;28;773;-59
2022/03/04 02:23:03;;;;;;;;;;;;;;;16.67;40.66;100664.22;5075653;28;896;-59
2022/03/04 02:25:29;;;;;;;;;;;;;;;16.88;40.05;100655.94;5075232;28;773;-60
2022/03/04 02:27:54;;;;;;;;;;;;;;;17.30;39.10;100662.97;5075677;28;868;-59
2022/03/04 02:30:19;;;;;;;;;;;;;;;17.67;38.62;100656.22;5075607;28;1970;-58
2022/03/04 02:32:45;;;;;;;;;;;;;;;17.82;37.95;100665.47;5075126;28;826;-58
2022/03/04 02:35:10;;;;;;;;;;;;;;;17.70;38.17;100665.84;5075433;28;837;-58
2022/03/04 02:37:38;;;;;;;;;;;;;;;17.33;39.12;100656.91;5075417;28;813;-58
2022/03/04 02:40:04;;;;;;;;;;;;;;;16.87;39.94;100668.88;5074851;28;1041;-58
2022/03/04 02:42:29;;;;;;;;;;;;;;;16.75;40.40;100680.13;5075638;28;857;-58
2022/03/04 02:44:55;;;;;;;;;;;;;;;16.68;40.46;100668.63;5075650;28;857;-58
2022/03/04 02:47:20;;;;;;;;;;;;;;;16.75;40.58;100679.31;5075096;28;937;-59
2022/03/04 02:49:46;;;;;;;;;;;;;;;17.05;39.56;100670.19;5075165;28;1897;-59
2022/03/04 02:52:11;;;;;;;;;;;;;;;17.46;38.76;100674.75;5075367;28;868;-59
2022/03/04 02:54:36;;;;;;;;;;;;;;;17.73;38.04;100674.31;5075515;28;776;-58
2022/03/04 02:57:02;;;;;;;;;;;;;;;17.68;38.43;100679.03;5075668;28;785;-58
2022/03/04 02:59:27;;;;;;;;;;;;;;;17.38;38.74;100687.13;5075670;28;730;-59
2022/03/04 03:01:53;;;;;;;;;;;;;;;16.98;39.58;100677.09;5074631;28;907;-59
2022/03/04 03:04:19;;;;;;;;;;;;;;;16.68;40.29;100687.84;5075301;28;785;-59
2022/03/04 03:06:45;;;;;;;;;;;;;;;16.77;40.34;100677.13;5075846;28;761;-58
2022/03/04 03:09:10;;;;;;;;;;;;;;;17.24;39.32;100673.19;5074527;28;1968;-59
2022/03/04 03:11:36;;;;;;;;;;;;;;;17.96;37.57;100683.00;5078336;28;825;-59
2022/03/04 03:14:01;;;;;;;;;;;;;;;17.72;37.74;100675.41;5079214;28;734;-59
2022/03/04 03:16:26;;;;;;;;;;;;;;;17.10;39.29;100678.44;5077886;28;1149;-58
2022/03/04 03:18:52;;;;;;;;;;;;;;;16.79;40.17;100668.59;5079289;28;911;-58
2022/03/04 03:21:17;;;;;;;;;;;;;;;16.53;40.63;100679.63;5078877;28;821;-59
2022/03/04 03:23:43;;;;;;;;;;;;;;;16.65;40.26;100676.56;5078661;28;825;-59
2022/03/04 03:26:08;;;;;;;;;;;;;;;16.74;40.12;100678.47;5079626;28;798;-59
2022/03/04 03:28:34;;;;;;;;;;;;;;;17.40;38.82;100673.97;5078756;28;1905;-59
2022/03/04 03:31:00;;;;;;;;;;;;;;;17.79;37.92;100678.72;5077978;28;865;-59
2022/03/04 03:33:25;;;;;;;;;;;;;;;17.65;38.07;100680.41;5079128;28;812;-60
2022/03/04 03:35:54;;;;;;;;;;;;;;;16.95;39.33;100670.25;5078422;28;839;-59
2022/03/04 03:38:20;;;;;;;;;;;;;;;16.65;39.88;100668.34;5078020;28;829;-59
2022/03/04 03:40:46;;;;;;;;;;;;;;;16.64;40.24;100678.50;5078337;28;989;-59
2022/03/04 03:43:12;;;;;;;;;;;;;;;16.69;40.35;100680.41;5078287;28;756;-59
2022/03/04 03:45:37;;;;;;;;;;;;;;;16.74;40.04;100675.75;5076514;28;856;-59
2022/03/04 03:48:03;;;;;;;;;;;;;;;16.89;39.79;100668.63;5078762;28;764;-59
2022/03/04 03:50:30;;;;;;;;;;;;;;;17.35;38.90;100670.38;5078208;28;2800;-59
2022/03/04 03:52:56;;;;;;;;;;;;;;;17.69;37.94;100678.75;5071982;28;796;-59
2022/03/04 03:55:21;;;;;;;;;;;;;;;17.05;39.11;100666.66;5078109;28;832;-59
2022/03/04 03:57:47;;;;;;;;;;;;;;;16.67;40.04;100672.47;5077947;28;981;-59
2022/03/04 04:00:13;;;;;;;;;;;;;;;16.56;40.50;100665.34;5078320;28;1027;-59
2022/03/04 04:02:38;;;;;;;;;;;;;;;17.15;39.20;100660.28;5078006;28;720;-58
2022/03/04 04:05:04;;;;;;;;;;;;;;;17.47;38.29;100656.31;5077770;28;790;-59
2022/03/04 04:07:29;;;;;;;;;;;;;;;17.35;38.79;100659.38;5077928;28;861;-59
2022/03/04 04:09:55;;;;;;;;;;;;;;;16.83;39.74;100658.69;5077512;28;1917;-58
2022/03/04 04:12:20;;;;;;;;;;;;;;;16.69;39.96;100667.53;5077727;28;856;-60
2022/03/04 04:14:45;;;;;;;;;;;;;;;16.72;39.87;100657.91;5078201;28;1012;-60
2022/03/04 04:17:11;;;;;;;;;;;;;;;16.77;39.70;100660.63;5077368;28;875;-61
2022/03/04 04:19:36;;;;;;;;;;;;;;;16.89;39.86;100660.38;5077590;28;877;-57
2022/03/04 04:22:02;;;;;;;;;;;;;;;17.43;38.71;100639.56;5077415;28;867;-61
2022/03/04 04:24:27;;;;;;;;;;;;;;;17.40;38.66;100651.97;5077783;28;782;-61
2022/03/04 04:26:53;;;;;;;;;;;;;;;16.74;39.71;100653.78;5077562;28;862;-60
2022/03/04 04:29:18;;;;;;;;;;;;;;;16.54;39.88;100653.81;5077676;28;1981;-59
2022/03/04 04:31:43;;;;;;;;;;;;;;;16.63;40.23;100660.38;5076910;28;916;-60
2022/03/04 04:34:09;;;;;;;;;;;;;;;17.32;39.09;100658.03;5077568;28;888;-60
2022/03/04 04:36:35;;;;;;;;;;;;;;;18.43;36.57;100656.78;5077645;28;860;-61
2022/03/04 04:39:00;;;;;;;;;;;;;;;17.73;37.94;100666.06;5077268;28;942;-60
2022/03/04 04:41:25;;;;;;;;;;;;;;;17.26;38.42;100668.25;5077574;28;764;-60
2022/03/04 04:43:51;;;;;;;;;;;;;;;16.84;39.67;100665.84;5077637;28;773;-60
2022/03/04 04:46:16;;;;;;;;;;;;;;;17.37;38.71;100665.44;5076645;28;953;-60
2022/03/04 04:48:42;;;;;;;;;;;;;;;17.27;38.88;100658.06;5077377;28;1980;-60
2022/03/04 04:51:07;;;;;;;;;;;;;;;16.69;39.95;100664.78;5077340;28;757;-60
2022/03/04 04:53:33;;;;;;;;;;;;;;;16.54;40.07;100668.38;5077033;28;861;-60
2022/03/04 04:55:58;;;;;;;;;;;;;;;16.53;40.45;100665.91;5075846;28;1435;-61
2022/03/04 04:58:24;;;;;;;;;;;;;;;16.65;40.26;100671.09;5076413;28;829;-60
2022/03/04 05:00:53;;;;;;;;;;;;;;;16.76;39.76;100687.28;5076079;28;902;-60
2022/03/04 05:03:22;;;;;;;;;;;;;;;17.04;39.46;100671.31;5077158;28;805;-59
2022/03/04 05:05:47;;;;;;;;;;;;;;;17.41;38.62;100670.06;5077243;28;746;-58
2022/03/04 05:08:13;;;;;;;;;;;;;;;17.54;38.20;100679.63;5076814;28;1905;-59
2022/03/04 05:10:38;;;;;;;;;;;;;;;16.90;39.22;100676.59;5076837;28;749;-58
2022/03/04 05:13:04;;;;;;;;;;;;;;;16.74;39.48;100681.22;5076665;28;846;-58
2022/03/04 05:15:29;;;;;;;;;;;;;;;16.65;40.32;100677.41;5075884;28;1230;-59
2022/03/04 05:17:55;;;;;;;;;;;;;;;16.87;39.83;100676.28;5076634;28;837;-60
2022/03/04 05:20:20;;;;;;;;;;;;;;;17.42;38.58;100676.41;5076252;28;817;-60
2022/03/04 05:22:46;;;;;;;;;;;;;;;17.47;38.16;100675.56;5076922;28;821;-58
2022/03/04 05:25:13;;;;;;;;;;;;;;;16.91;38.94;100677.41;5076480;28;817;-58
2022/03/04 05:27:38;;;;;;;;;;;;;;;16.63;39.82;100687.03;5076820;28;776;-58
2022/03/04 05:30:04;;;;;;;;;;;;;;;16.38;40.54;100692.25;5076232;28;1980;-58
2022/03/04 05:32:29;;;;;;;;;;;;;;;16.58;39.94;100698.84;5075907;28;763;-58
2022/03/04 05:34:55;;;;;;;;;;;;;;;16.60;40.12;100711.16;5076220;28;816;-59
2022/03/04 05:37:20;;;;;;;;;;;;;;;17.08;39.28;100702.63;5075759;28;931;-59
2022/03/04 05:39:46;;;;;;;;;;;;;;;17.47;38.22;100712.09;5076316;28;809;-59
2022/03/04 05:42:11;;;;;;;;;;;;;;;17.73;37.89;100709.25;5069722;28;913;-58
2022/03/04 05:44:37;;;;;;;;;;;;;;;17.92;37.65;100717.69;5076403;28;932;-59
2022/03/04 05:47:02;;;;;;;;;;;;;;;17.50;38.18;100727.22;5076216;28;833;-59
2022/03/04 05:49:28;;;;;;;;;;;;;;;17.14;38.83;100727.31;5075867;28;1910;-60
2022/03/04 05:51:53;;;;;;;;;;;;;;;16.66;39.96;100724.91;5075999;28;905;-59
2022/03/04 05:54:19;;;;;;;;;;;;;;;16.61;40.15;100731.22;5076428;28;899;-59
2022/03/04 05:56:44;;;;;;;;;;;;;;;16.70;40.09;100732.31;5075963;28;846;-59
2022/03/04 05:59:10;;;;;;;;;;;;;;;17.06;39.35;100721.31;5075413;28;970;-59
2022/03/04 06:01:35;;;;;;;;;;;;;;;17.33;38.53;100733.06;5074936;28;1285;-59
2022/03/04 06:04:00;;;;;;;;;;;;;;;17.57;38.26;100739.59;5075797;28;1101;-58
2022/03/04 06:06:26;;;;;;;;;;;;;;;17.51;38.26;100731.63;5075729;28;853;-60
2022/03/04 06:08:52;;;;;;;;;;;;;;;17.37;38.61;100743.22;5076136;28;1971;-58
2022/03/04 06:11:19;;;;;;;;;;;;;;;17.18;38.95;100754.00;5075690;28;921;-61
2022/03/04 06:13:44;;;;;;;;;;;;;;;16.87;39.52;100753.16;5075606;28;1214;-58
2022/03/04 06:16:10;;;;;;;;;;;;;;;16.60;39.90;100752.34;5075431;28;1126;-60
2022/03/04 06:18:35;;;;;;;;;;;;;;;16.66;40.03;100758.69;5075622;28;983;-59
2022/03/04 06:21:01;;;;;;;;;;;;;;;16.88;39.56;100750.19;5075390;28;976;-58
2022/03/04 06:23:26;;;;;;;;;;;;;;;16.95;39.45;100751.84;5075646;28;1020;-58
2022/03/04 06:25:52;;;;;;;;;;;;;;;17.16;39.06;100749.88;5075250;28;910;-59
2022/03/04 06:28:17;;;;;;;;;;;;;;;17.39;38.52;100743.75;5074934;28;1905;-57
2022/03/04 06:30:43;;;;;;;;;;;;;;;17.60;38.03;100749.19;5075635;28;1100;-59
2022/03/04 06:35:53;;;;;;;;;;;;;;;17.55;38.17;100762.97;5070288;28;844;-59
2022/03/04 06:38:19;;;;;;;;;;;;;;;17.15;39.09;100759.22;5079401;28;1313;-58
2022/03/04 06:40:45;;;;;;;;;;;;;;;16.94;39.68;100761.97;5075252;28;849;-61
2022/03/04 06:43:10;;;;;;;;;;;;;;;16.83;39.82;100765.81;5075794;28;727;-60
2022/03/04 06:45:36;;;;;;;;;;;;;;;16.84;39.81;100764.72;5071791;28;871;-60
2022/03/04 06:48:02;;;;;;;;;;;;;;;16.92;39.76;100759.50;5079674;28;841;-63
2022/03/04 06:50:27;;;;;;;;;;;;;;;17.09;39.46;100764.69;5079536;28;1918;-59
2022/03/04 06:52:53;;;;;;;;;;;;;;;17.42;38.54;100761.63;5079199;28;774;-61
2022/03/04 06:55:19;;;;;;;;;;;;;;;17.71;38.06;100752.72;5079364;28;789;-63
2022/03/04 06:57:46;;;;;;;;;;;;;;;17.64;38.13;100750.25;5079513;28;753;-60
2022/03/04 07:00:11;;;;;;;;;;;;;;;17.22;39.00;100760.59;5111163;28;894;-63
2022/03/04 07:02:37;;;;;;;;;;;;;;;16.80;39.89;100760.88;5078843;28;969;-59
2022/03/04 07:05:03;;;;;;;;;;;;;;;16.87;39.70;100754.00;5079495;28;1435;-57
2022/03/04 07:07:29;;;;;;;;;;;;;;;17.42;38.40;100765.19;5078984;28;1306;-58
2022/03/04 07:09:54;;;;;;;;;;;;;;;17.14;39.07;100768.53;5078916;28;1906;-59
2022/03/04 07:12:19;;;;;;;;;;;;;;;16.95;39.47;100760.88;5078716;28;1100;-58
2022/03/04 07:14:46;;;;;;;;;;;;;;;16.89;39.70;100764.75;5078764;28;1368;-58
2022/03/04 07:17:12;;;;;;;;;;;;;;;16.90;39.38;100771.88;5080476;28;1710;-58
2022/03/04 07:19:37;;;;;;;;;;;;;;;16.96;39.53;100768.03;5082285;28;1293;-59
2022/03/04 07:22:04;;;;;;;;;;;;;;;17.22;38.76;100765.22;5079908;28;1617;-61
2022/03/04 07:24:29;;;;;;;;;;;;;;;17.41;38.68;100768.22;5078558;28;1294;-59
2022/03/04 07:26:55;;;;;;;;;;;;;;;17.60;38.25;100760.19;5078470;28;1388;-59
2022/03/04 07:29:20;;;;;;;;;;;;;;;17.37;38.56;100759.69;5083517;28;1917;-58
2022/03/04 07:31:46;;;;;;;;;;;;;;;17.10;39.39;100763.59;5077206;28;1335;-60
2022/03/04 07:34:11;;;;;;;;;;;;;;;16.96;39.36;100746.06;5079959;28;1542;-61
2022/03/04 07:36:37;;;;;;;;;;;;;;;16.79;40.10;100753.72;5078801;28;1533;-62
2022/03/04 07:39:03;;;;;;;;;;;;;;;16.61;40.56;100755.94;5078306;28;1110;-59
2022/03/04 07:41:28;;;;;;;;;;;;;;;17.81;38.07;100760.09;5076225;28;1381;-63
2022/03/04 07:43:54;;;;;;;;;;;;;;;17.32;38.79;100754.25;5079199;28;1336;-65
2022/03/04 07:46:21;;;;;;;;;;;;;;;16.82;39.86;100756.75;5077932;28;1352;-62
2022/03/04 07:48:47;;;;;;;;;;;;;;;16.57;39.67;100757.56;5082153;28;1967;-63
2022/03/04 07:51:13;;;;;;;;;;;;;;;17.13;39.39;100750.44;5077785;28;1370;-61
2022/03/04 07:53:38;;;;;;;;;;;;;;;17.43;38.64;100755.84;5076818;28;1195;-62
2022/03/04 07:56:04;;;;;;;;;;;;;;;17.15;39.36;100754.53;5083410;28;1288;-64
2022/03/04 07:58:29;;;;;;;;;;;;;;;16.81;39.83;100746.84;5080326;28;1216;-64
2022/03/04 08:00:54;;;;;;;;;;;;;;;16.55;40.03;100748.78;5084768;28;1315;-60
2022/03/04 08:03:20;;;;;;;;;;;;;;;16.55;41.07;100748.78;5079001;28;1266;-59
2022/03/04 08:05:45;;;;;;;;;;;;;;;16.95;39.94;100744.41;5077752;28;1437;-63
2022/03/04 08:08:11;;;;;;;;;;;;;;;16.72;40.23;100741.09;5078110;28;762;-62
2022/03/04 08:10:36;;;;;;;;;;;;;;;16.59;40.48;100742.50;5077929;28;1996;-59
2022/03/04 08:13:02;;;;;;;;;;;;;;;16.42;40.77;100742.75;5078324;28;1145;-62
2022/03/04 08:15:27;;;;;;;;;;;;;;;16.49;40.77;100745.22;5071589;28;1198;-62
2022/03/04 08:17:53;;;;;;;;;;;;;;;16.81;40.14;100748.78;5054221;28;1271;-59
2022/03/04 08:20:19;;;;;;;;;;;;;;;17.05;39.69;100744.38;5057190;28;1323;-59
2022/03/04 08:22:45;;;;;;;;;;;;;;;17.25;38.98;100742.69;5056088;28;1544;-57
2022/03/04 08:25:10;;;;;;;;;;;;;;;17.41;38.79;100744.28;5055576;28;1328;-59
2022/03/04 08:27:39;;;;;;;;;;;;;;;17.42;38.74;100742.38;5057653;28;1252;-58
2022/03/04 08:30:05;;;;;;;;;;;;;;;17.25;39.15;100754.53;5057445;28;1891;-58
2022/03/04 08:32:32;;;;;;;;;;;;;;;17.00;39.75;100752.66;5053892;28;1299;-58
2022/03/04 08:34:59;;;;;;;;;;;;;;;16.99;39.67;100755.69;5056255;28;1338;-59
2022/03/04 08:37:25;;;;;;;;;;;;;;;16.84;39.88;100760.03;5064471;28;1144;-61
2022/03/04 08:39:51;;;;;;;;;;;;;;;16.91;39.71;100754.28;5057083;28;1279;-60
2022/03/04 08:42:16;;;;;;;;;;;;;;;17.00;39.77;100760.88;5055820;28;1303;-58
2022/03/04 08:44:42;;;;;;;;;;;;;;;17.08;39.35;100760.34;5055185;28;1177;-57
2022/03/04 08:47:08;;;;;;;;;;;;;;;17.38;38.74;100761.34;5055254;28;883;-58
2022/03/04 08:49:33;;;;;;;;;;;;;;;17.05;39.29;100749.06;5053945;28;1913;-58
2022/03/04 08:51:59;;;;;;;;;;;;;;;16.80;39.96;100760.88;5060200;28;872;-57
2022/03/04 08:54:25;;;;;;;;;;;;;;;16.52;40.43;100754.81;5054349;28;1318;-59
2022/03/04 08:56:50;;;;;;;;;;;;;;;17.33;39.21;100746.81;5054932;28;1256;-58
2022/03/04 08:59:16;;;;;;;;;;;;;;;17.38;38.98;100747.59;5057269;28;761;-63
2022/03/04 09:01:41;;;;;;;;;;;;;;;17.02;39.45;100744.94;5055920;28;964;-60
2022/03/04 09:04:07;;;;;;;;;;;;;;;16.72;39.53;100746.59;5056050;28;1301;-60
2022/03/04 09:06:32;;;;;;;;;;;;;;;16.66;40.79;100742.22;5054336;28;1281;-60
2022/03/04 09:08:58;;;;;;;;;;;;;;;17.48;38.82;100751.44;5054139;28;1983;-61
2022/03/04 09:11:23;;;;;;;;;;;;;;;17.09;39.54;100733.66;5058670;28;1328;-60
2022/03/04 09:13:48;;;;;;;;;;;;;;;16.83;39.86;100743.84;5061067;28;1301;-60
2022/03/04 09:16:14;;;;;;;;;;;;;;;16.61;40.34;100742.22;5074200;28;1278;-60
2022/03/04 09:18:39;;;;;;;;;;;;;;;17.54;38.69;100729.13;5079034;28;1400;-61
2022/03/04 09:21:05;;;;;;;;;;;;;;;17.33;38.86;100733.06;5076964;28;1167;-60
2022/03/04 09:23:30;;;;;;;;;;;;;;;17.05;39.38;100730.66;5077901;28;1344;-59
2022/03/04 09:25:56;;;;;;;;;;;;;;;16.65;40.09;100737.81;5077178;28;1518;-58
2022/03/04 09:28:22;;;;;;;;;;;;;;;17.05;39.98;100727.91;5076157;28;1921;-57
2022/03/04 09:30:48;;;;;;;;;;;;;;;17.38;38.95;100731.13;5077255;28;1392;-57
2022/03/04 09:33:13;;;;;;;;;;;;;;;17.03;39.84;100746.59;5079786;28;1538;-56
2022/03/04 09:35:39;;;;;;;;;;;;;;;16.83;39.31;100741.09;5079195;28;794;-57
2022/03/04 09:38:04;;;;;;;;;;;;;;;16.61;40.63;100733.97;5076433;28;1240;-57
2022/03/04 09:40:31;;;;;;;;;;;;;;;17.76;38.01;100733.44;5077160;28;1273;-57
2022/03/04 09:42:57;;;;;;;;;;;;;;;17.29;38.95;100727.28;5076381;28;1460;-58
2022/03/04 09:45:22;;;;;;;;;;;;;;;16.93;39.81;100725.47;5107675;28;1130;-58
2022/03/04 09:47:48;;;;;;;;;;;;;;;16.59;40.05;100720.53;5075560;28;1261;-58
2022/03/04 09:50:16;;;;;;;;;;;;;;;17.51;38.96;100720.63;5077132;28;1980;-58
2022/03/04 09:52:41;;;;;;;;;;;;;;;17.68;38.41;100726.59;5077480;28;1316;-58
2022/03/04 09:55:07;;;;;;;;;;;;;;;17.23;39.06;100712.75;5076783;28;1222;-58
2022/03/04 09:57:32;;;;;;;;;;;;;;;16.81;40.39;100715.84;5075955;28;1297;-58
2022/03/04 09:59:58;;;;;;;;;;;;;;;17.07;39.63;100706.47;5077002;28;1617;-57
2022/03/04 10:02:25;;;;;;;;;;;;;;;17.89;37.98;100705.31;5075263;28;1264;-57
2022/03/04 10:05:02;;;;;;;;;;;;;;;17.53;38.71;100710.16;5077478;28;1344;-56
2022/03/04 10:07:36;;;;;;;;;;;;;;;17.13;39.64;100701.78;5074187;28;1297;-58
2022/03/04 10:10:02;;;;;;;;;;;;;;;16.88;39.92;100708.97;5076205;28;1975;-58
2022/03/04 10:12:28;;;;;;;;;;;;;;;17.01;40.00;100693.03;5075277;28;1535;-58
2022/03/04 10:14:57;;;;;;;;;;;;;;;18.15;37.77;100698.88;5075920;28;1577;-58
2022/03/04 10:17:23;;;;;;;;;;;;;;;18.27;37.57;100707.56;5074155;28;1339;-58
2022/03/04 10:19:55;;;;;;;;;;;;;;;17.72;38.57;100697.41;5075113;28;1242;-58
2022/03/04 10:22:20;;;;;;;;;;;;;;;17.16;39.65;100694.91;5077543;28;1320;-58
2022/03/04 10:24:46;;;;;;;;;;;;;;;16.95;40.21;100691.41;5080778;28;1266;-58
2022/03/04 10:27:12;;;;;;;;;;;;;;;16.69;40.79;100695.00;5075464;28;1377;-58
2022/03/04 10:29:39;;;;;;;;;;;;;;;17.07;40.07;100691.94;5075787;28;1910;-58
2022/03/04 10:32:06;;;;;;;;;;;;;;;18.00;38.53;100692.34;5072170;28;1487;-58
2022/03/04 10:34:44;;;;;;;;;;;;;;;18.17;37.69;100688.38;5084440;28;1585;-59
2022/03/04 10:37:09;;;;;;;;;;;;;;;17.54;38.88;100674.13;5076506;28;1368;-58
2022/03/04 10:39:34;;;;;;;;;;;;;;;17.21;39.71;100683.91;5074722;28;1128;-58
2022/03/04 10:42:00;;;;;;;;;;;;;;;17.03;40.22;100680.66;5078800;28;1197;-59
2022/03/04 10:44:29;;;;;;;;;;;;;;;17.08;40.38;100680.66;5079310;28;1306;-58
2022/03/04 10:46:58;;;;;;;;;;;;;;;18.03;38.41;100677.19;5071226;28;1454;-59
2022/03/04 10:49:24;;;;;;;;;;;;;;;18.35;37.50;100662.09;5075679;28;1990;-59
2022/03/04 10:51:50;;;;;;;;;;;;;;;17.83;38.75;100667.94;5074464;28;1573;-59
2022/03/04 10:54:16;;;;;;;;;;;;;;;17.35;39.41;100668.47;5075813;28;1514;-58
2022/03/04 10:56:48;;;;;;;;;;;;;;;17.24;40.02;100659.44;5075141;28;1249;-59
2022/03/04 10:59:14;;;;;;;;;;;;;;;17.13;39.99;100663.31;5074743;28;1175;-59
2022/03/04 11:01:45;;;;;;;;;;;;;;;17.19;39.96;100653.94;5075330;28;911;-57
2022/03/04 11:04:10;;;;;;;;;;;;;;;17.24;40.20;100656.69;5074989;28;1530;-59
2022/03/04 11:06:38;;;;;;;;;;;;;;;17.86;38.88;100647.28;5107950;28;999;-57
2022/03/04 11:09:04;;;;;;;;;;;;;;;18.18;38.22;100649.56;5105589;28;1882;-56
2022/03/04 11:11:30;;;;;;;;;;;;;;;18.40;37.68;100646.34;5076266;28;1371;-57
2022/03/04 11:13:57;;;;;;;;;;;;;;;18.64;37.25;100649.16;5103504;28;1178;-58
2022/03/04 11:16:22;;;;;;;;;;;;;;;18.67;36.88;100642.25;5078453;28;1450;-58
2022/03/04 11:18:48;;;;;;;;;;;;;;;18.68;36.69;100635.63;5106903;28;1171;-61
2022/03/04 11:21:13;;;;;;;;;;;;;;;18.40;37.39;100637.28;5102018;28;1301;-61
2022/03/04 11:23:39;;;;;;;;;;;;;;;17.85;38.40;100634.66;5074689;28;1277;-61
2022/03/04 11:26:05;;;;;;;;;;;;;;;17.31;38.96;100630.84;5073772;28;1253;-60
2022/03/04 11:28:41;;;;;;;;;;;;;;;17.06;39.74;100644.38;5072658;28;1905;-59
2022/03/04 11:31:07;;;;;;;;;;;;;;;17.26;40.33;100632.50;5074318;28;1246;-59
2022/03/04 11:33:33;;;;;;;;;;;;;;;18.35;37.88;100626.31;5078403;28;1033;-60
2022/03/04 11:36:02;;;;;;;;;;;;;;;18.84;36.61;100632.72;5083887;28;1383;-59
2022/03/04 11:38:46;;;;;;;;;;;;;;;18.21;37.95;100623.41;5078890;28;1281;-57
2022/03/04 11:41:16;;;;;;;;;;;;;;;17.60;38.93;100622.72;5078031;28;1379;-58
2022/03/04 11:43:51;;;;;;;;;;;;;;;17.33;39.71;100623.13;5078708;28;853;-59
2022/03/04 11:46:17;;;;;;;;;;;;;;;17.00;39.69;100626.28;5081257;28;1480;-58
2022/03/04 11:48:43;;;;;;;;;;;;;;;17.08;40.40;100625.72;5078646;28;1968;-59
2022/03/04 11:51:20;;;;;;;;;;;;;;;18.34;37.50;100622.75;5106898;28;1602;-59
2022/03/04 11:54:04;;;;;;;;;;;;;;;18.18;37.66;100619.28;5073673;28;1566;-60
2022/03/04 11:56:32;;;;;;;;;;;;;;;17.65;38.66;100630.91;5077921;28;1329;-59
2022/03/04 11:58:57;;;;;;;;;;;;;;;17.18;39.54;100633.09;5077460;28;1304;-58
2022/03/04 12:01:33;;;;;;;;;;;;;;;16.91;39.91;100627.97;5077672;28;1310;-59
2022/03/04 12:04:05;;;;;;;;;;;;;;;17.04;40.50;100627.38;5078929;28;1276;-57
2022/03/04 12:06:31;;;;;;;;;;;;;;;18.34;37.82;100631.00;5080778;28;1248;-60
2022/03/04 12:09:11;;;;;;;;;;;;;;;18.29;37.61;100625.53;5077177;28;1905;-63
2022/03/04 12:11:36;;;;;;;;;;;;;;;17.63;39.13;100644.16;5070786;28;1483;-61
2022/03/04 12:14:08;;;;;;;;;;;;;;;17.31;39.79;100634.41;5077608;28;1452;-60
2022/03/04 12:16:47;;;;;;;;;;;;;;;16.97;39.95;100631.50;5077746;28;1314;-62
2022/03/04 12:19:42;;;;;;;;;;;;;;;16.64;40.66;100639.25;5078449;28;1517;-62
2022/03/04 12:22:07;;;;;;;;;;;;;;;18.00;38.49;100642.81;5070776;28;1299;-61
2022/03/04 12:24:33;;;;;;;;;;;;;;;18.24;37.98;100651.19;5078371;28;1259;-62
2022/03/04 12:27:00;;;;;;;;;;;;;;;17.74;38.99;100662.22;5077760;28;1072;-63
2022/03/04 12:29:44;;;;;;;;;;;;;;;17.27;39.91;100664.38;5077645;28;1974;-62
2022/03/04 12:32:09;;;;;;;;;;;;;;;17.03;40.37;100649.63;5075713;28;1317;-60
2022/03/04 12:34:38;;;;;;;;;;;;;;;16.83;40.88;100664.19;5086742;28;1408;-61
2022/03/04 12:37:08;;;;;;;;;;;;;;;17.27;40.11;100656.13;5077155;28;1375;-59
2022/03/04 12:39:36;;;;;;;;;;;;;;;18.51;37.49;100665.53;5083448;28;1379;-59
2022/03/04 12:42:02;;;;;;;;;;;;;;;18.33;37.69;100665.13;5073630;28;1550;-62
2022/03/04 12:44:28;;;;;;;;;;;;;;;18.06;38.36;100671.13;5077613;28;845;-59
2022/03/04 12:46:53;;;;;;;;;;;;;;;17.67;39.17;100666.38;5077530;28;1364;-59
2022/03/04 12:49:19;;;;;;;;;;;;;;;17.51;39.40;100660.16;5104011;28;1979;-58